Time;durP1;ratioP1;P1;durP2;ratioP2;P2;SDS_P1;SDS_P2;PMS_P1;PMS_P2;Temp;Humidity;BMP_temperature;BMP_pressure;BME280_temperature;BME280_humidity;BME280_pressure;Samples;Min_cycle;Max_cycle;Signal;HPM_P1;HPM_P2
2022/12/11 00:00:47;;;;;;;0.85;0.63;;;16.70;50.30;;;;;;5048359;28;20099;-44
2022/12/11 00:03:14;;;;;;;3.00;1.13;;;16.70;50.30;;;;;;5048479;28;20049;-44
2022/12/11 00:05:41;;;;;;;1.98;0.90;;;16.70;50.40;;;;;;5048886;28;20048;-43
2022/12/11 00:08:10;;;;;;;1.23;1.10;;;16.60;50.30;;;;;;5048153;28;20052;-46
2022/12/11 00:10:37;;;;;;;1.67;1.58;;;16.60;50.40;;;;;;5048762;28;20106;-45
2022/12/11 00:13:04;;;;;;;1.42;0.93;;;16.60;50.50;;;;;;5047841;28;20048;-47
2022/12/11 00:15:32;;;;;;;3.25;1.25;;;16.60;50.50;;;;;;5037750;28;20052;-45
2022/12/11 00:17:59;;;;;;;2.20;1.25;;;16.60;50.60;;;;;;5029321;28;20068;-44
2022/12/11 00:20:26;;;;;;;1.92;1.17;;;16.60;50.70;;;;;;5047887;28;20094;-45
2022/12/11 00:22:53;;;;;;;2.83;1.13;;;16.60;50.70;;;;;;5047717;28;20521;-44
2022/12/11 00:25:21;;;;;;;2.72;0.77;;;16.60;50.80;;;;;;5047825;28;20120;-44
2022/12/11 00:27:48;;;;;;;1.63;0.98;;;16.60;50.80;;;;;;5047926;28;20103;-45
2022/12/11 00:30:16;;;;;;;2.03;0.90;;;16.50;50.80;;;;;;5047587;28;20076;-45
2022/12/11 00:32:43;;;;;;;1.13;0.77;;;16.50;50.80;;;;;;5047427;28;20049;-44
2022/12/11 00:35:10;;;;;;;1.05;0.98;;;16.50;50.80;;;;;;5048226;28;20134;-44
2022/12/11 00:37:37;;;;;;;2.80;1.48;;;16.50;50.90;;;;;;5047711;28;20063;-44
2022/12/11 00:40:05;;;;;;;2.65;0.95;;;16.50;50.90;;;;;;5047340;28;20047;-44
2022/12/11 00:42:34;;;;;;;1.73;0.65;;;16.50;50.90;;;;;;5047556;28;20111;-44
2022/12/11 00:45:01;;;;;;;1.23;1.13;;;16.50;51.00;;;;;;5047331;28;20045;-44
2022/12/11 00:47:28;;;;;;;1.48;0.68;;;16.50;51.00;;;;;;5047362;28;20045;-45
2022/12/11 00:49:55;;;;;;;0.68;0.65;;;16.50;51.00;;;;;;5047618;28;20052;-45
2022/12/11 00:52:23;;;;;;;1.55;0.77;;;16.50;51.00;;;;;;5046213;28;20045;-43
2022/12/11 00:54:50;;;;;;;0.80;0.73;;;16.50;51.10;;;;;;5046882;28;20080;-44
2022/12/11 00:57:17;;;;;;;1.38;0.98;;;16.50;51.20;;;;;;5046051;28;20076;-44
2022/12/11 00:59:46;;;;;;;0.88;0.63;;;16.50;51.20;;;;;;5046112;28;20122;-47
2022/12/11 01:02:13;;;;;;;1.30;0.60;;;16.50;51.20;;;;;;5045681;28;20053;-45
2022/12/11 01:04:40;;;;;;;0.90;0.45;;;16.50;51.30;;;;;;5047575;28;20128;-45
2022/12/11 01:07:07;;;;;;;1.48;0.52;;;16.50;51.30;;;;;;5047415;28;20053;-45
2022/12/11 01:12:19;;;;;;;0.77;0.55;;;16.50;51.20;;;;;;5047126;28;20102;-44
2022/12/11 01:14:48;;;;;;;0.50;0.43;;;16.50;51.20;;;;;;5047185;28;20040;-46
2022/12/11 01:17:15;;;;;;;2.10;1.00;;;16.50;51.20;;;;;;5046993;28;20044;-47
2022/12/11 01:19:42;;;;;;;1.05;0.95;;;16.50;51.10;;;;;;5046250;28;20793;-45
2022/12/11 01:22:09;;;;;;;2.38;0.40;;;16.40;51.00;;;;;;5047340;28;20045;-43
2022/12/11 01:24:36;;;;;;;0.80;0.68;;;16.40;51.00;;;;;;5046931;28;20128;-44
2022/12/11 01:27:04;;;;;;;0.85;0.50;;;16.50;51.10;;;;;;5047169;28;20916;-45
2022/12/11 01:29:32;;;;;;;1.33;0.57;;;16.50;51.00;;;;;;5047146;28;20139;-44
2022/12/11 01:32:00;;;;;;;1.10;0.68;;;16.40;50.90;;;;;;5047161;28;20057;-46
2022/12/11 01:34:29;;;;;;;0.93;0.55;;;16.40;50.90;;;;;;5047175;28;20328;-44
2022/12/11 01:36:56;;;;;;;0.63;0.43;;;16.40;50.80;;;;;;5047312;28;20594;-45
2022/12/11 01:39:23;;;;;;;0.60;0.50;;;16.40;50.70;;;;;;5047160;28;20409;-45
2022/12/11 01:41:50;;;;;;;0.68;0.68;;;16.40;50.70;;;;;;5047134;28;20049;-45
2022/12/11 01:44:55;;;;;;;0.52;0.40;;;16.40;50.70;;;;;;5047188;28;20119;-45
2022/12/11 01:47:23;;;;;;;0.50;0.30;;;16.40;50.70;;;;;;5047141;28;20052;-44
2022/12/11 01:49:50;;;;;;;1.40;0.50;;;16.40;50.70;;;;;;5047247;28;20129;-45
2022/12/11 01:52:20;;;;;;;0.50;0.30;;;16.40;50.70;;;;;;5047095;28;20049;-43
2022/12/11 01:54:48;;;;;;;0.85;0.80;;;16.40;50.50;;;;;;5046695;28;20087;-44
2022/12/11 01:57:16;;;;;;;1.42;0.77;;;16.40;50.50;;;;;;5046544;28;20660;-44
2022/12/11 01:59:46;;;;;;;0.93;0.50;;;16.40;50.60;;;;;;5047145;28;20053;-46
2022/12/11 02:02:20;;;;;;;0.73;0.40;;;16.40;50.50;;;;;;5047268;28;20052;-45
2022/12/11 02:04:48;;;;;;;0.47;0.47;;;16.40;50.40;;;;;;5047628;28;20059;-46
2022/12/11 02:07:16;;;;;;;3.47;0.28;;;16.40;50.50;;;;;;5047050;28;20061;-44
2022/12/11 02:09:46;;;;;;;0.73;0.45;;;16.40;50.50;;;;;;5047419;28;20049;-47
2022/12/11 02:12:20;;;;;;;1.02;0.50;;;16.40;50.40;;;;;;5047306;28;20037;-45
2022/12/11 02:14:56;;;;;;;1.10;0.32;;;16.40;50.40;;;;;;5043491;28;20045;-44
2022/12/11 02:17:29;;;;;;;0.50;0.50;;;16.40;50.30;;;;;;5046842;28;20045;-45
2022/12/11 02:20:05;;;;;;;0.65;0.57;;;16.30;50.20;;;;;;5046638;28;20045;-45
2022/12/11 02:23:13;;;;;;;0.45;0.38;;;16.30;50.10;;;;;;5046365;28;20041;-44
2022/12/11 02:25:49;;;;;;;0.77;0.40;;;16.40;50.10;;;;;;5046851;28;20041;-45
2022/12/11 02:28:23;;;;;;;0.65;0.65;;;16.30;50.70;;;;;;5046417;28;20852;-44
2022/12/11 02:30:55;;;;;;;1.25;0.38;;;16.30;50.10;;;;;;5048620;28;20619;-44
2022/12/11 02:33:37;;;;;;;0.40;0.20;;;16.30;50.40;;;;;;5050119;28;20087;-48
2022/12/11 02:36:07;;;;;;;1.05;0.38;;;16.30;49.90;;;;;;5050032;28;20106;-44
2022/12/11 02:38:37;;;;;;;0.40;0.20;;;16.30;50.00;;;;;;5050276;28;20044;-45
2022/12/11 02:41:07;;;;;;;0.22;0.20;;;16.20;49.80;;;;;;5050387;28;20118;-46
2022/12/11 02:43:37;;;;;;;0.77;0.30;;;16.30;49.80;;;;;;5049594;28;20060;-45
2022/12/11 02:46:07;;;;;;;0.38;0.25;;;16.30;49.80;;;;;;5034800;28;20049;-43
2022/12/11 02:48:36;;;;;;;0.70;0.30;;;16.30;49.90;;;;;;5050135;28;20069;-46
2022/12/11 02:51:06;;;;;;;0.40;0.35;;;16.30;50.50;;;;;;5049942;28;20045;-46
2022/12/11 02:53:36;;;;;;;0.35;0.15;;;16.20;49.80;;;;;;5049732;28;20080;-45
2022/12/11 02:56:09;;;;;;;0.45;0.28;;;16.20;49.80;;;;;;5049745;28;20095;-46
2022/12/11 02:58:43;;;;;;;0.60;0.47;;;16.20;49.70;;;;;;5049815;28;20037;-43
2022/12/11 03:01:10;;;;;;;0.57;0.15;;;16.20;49.70;;;;;;5049700;28;20041;-44
2022/12/11 03:03:37;;;;;;;0.40;0.28;;;16.20;49.70;;;;;;5049767;28;20065;-44
2022/12/11 03:06:05;;;;;;;0.65;0.20;;;16.20;49.70;;;;;;5048134;28;20052;-43
2022/12/11 03:08:32;;;;;;;0.30;0.25;;;16.20;49.70;;;;;;5049588;28;20128;-43
2022/12/11 03:10:59;;;;;;;1.35;0.57;;;16.20;49.70;;;;;;5049619;28;20098;-45
2022/12/11 03:13:27;;;;;;;1.40;0.30;;;16.20;49.70;;;;;;5049456;28;20071;-43
2022/12/11 03:16:06;;;;;;;0.40;0.20;;;16.20;49.60;;;;;;5049311;28;20045;-43
2022/12/11 03:18:40;;;;;;;0.50;0.20;;;16.20;49.60;;;;;;5049322;28;20153;-46
2022/12/11 03:21:14;;;;;;;0.77;0.25;;;16.20;49.50;;;;;;5049236;28;20059;-44
2022/12/11 03:23:48;;;;;;;3.13;0.30;;;16.20;49.60;;;;;;5049223;28;20045;-43
2022/12/11 03:26:18;;;;;;;0.85;0.20;;;16.20;49.50;;;;;;5048134;28;20460;-45
2022/12/11 03:28:49;;;;;;;1.58;0.20;;;16.20;49.50;;;;;;5049112;28;20045;-43
2022/12/11 03:31:26;;;;;;;2.33;0.30;;;16.20;49.40;;;;;;5049167;28;20579;-43
2022/12/11 03:33:56;;;;;;;1.45;0.20;;;16.20;49.40;;;;;;5048919;28;20577;-43
2022/12/11 03:36:26;;;;;;;0.75;0.30;;;16.10;49.40;;;;;;5049166;28;20102;-43
2022/12/11 03:38:58;;;;;;;1.20;0.28;;;16.10;49.40;;;;;;5047861;28;20140;-43
2022/12/11 03:41:27;;;;;;;0.20;0.20;;;16.10;49.30;;;;;;5048598;28;20044;-43
2022/12/11 03:43:57;;;;;;;1.33;0.20;;;16.10;49.30;;;;;;5048552;28;20532;-44
2022/12/11 03:46:30;;;;;;;0.35;0.10;;;16.10;49.30;;;;;;5048729;28;20041;-44
2022/12/11 03:49:01;;;;;;;0.22;0.22;;;16.10;49.30;;;;;;5048539;28;20045;-43
2022/12/11 03:51:30;;;;;;;0.10;0.10;;;16.10;49.20;;;;;;5048923;28;20057;-43
2022/12/11 03:53:58;;;;;;;0.40;0.10;;;16.00;49.20;;;;;;5048429;28;20103;-44
2022/12/11 03:56:28;;;;;;;0.55;0.17;;;16.00;49.20;;;;;;5048743;28;20153;-44
2022/12/11 03:58:55;;;;;;;1.02;0.17;;;16.10;49.20;;;;;;5048708;28;20426;-44
2022/12/11 04:01:22;;;;;;;0.20;0.17;;;16.10;49.30;;;;;;5048286;28;20122;-44
2022/12/11 04:03:51;;;;;;;0.55;0.10;;;16.00;49.30;;;;;;5048213;28;20513;-44
2022/12/11 04:06:18;;;;;;;0.20;0.10;;;16.00;49.30;;;;;;5048640;28;20041;-45
2022/12/11 04:08:45;;;;;;;0.10;0.10;;;16.00;49.30;;;;;;5048581;28;20037;-47
2022/12/11 04:16:54;;;;;;;0.30;0.10;;;16.00;49.20;;;;;;4970345;28;20058;-46
2022/12/11 04:24:54;;;;;;;1.15;0.10;;;15.90;49.20;;;;;;4983110;28;20624;-44
2022/12/11 04:30:02;;;;;;;1.17;0.22;;;16.00;49.20;;;;;;4981912;28;20587;-44
2022/12/11 04:32:29;;;;;;;0.85;0.32;;;16.00;49.10;;;;;;4979677;28;20056;-45
2022/12/11 04:34:58;;;;;;;0.60;0.10;;;16.00;49.10;;;;;;4986064;28;20081;-44
2022/12/11 04:37:26;;;;;;;0.10;0.10;;;16.00;49.00;;;;;;4986283;28;20050;-44
2022/12/11 04:39:53;;;;;;;0.20;0.20;;;16.00;49.10;;;;;;4986002;28;20050;-44
2022/12/11 04:42:20;;;;;;;0.47;0.47;;;16.00;49.00;;;;;;4985568;28;20541;-44
2022/12/11 04:44:47;;;;;;;0.20;0.10;;;16.00;49.00;;;;;;4985831;28;20550;-45
2022/12/11 04:47:15;;;;;;;0.20;0.10;;;15.90;48.90;;;;;;4979365;28;20169;-43
2022/12/11 04:49:43;;;;;;;1.05;0.30;;;16.00;48.90;;;;;;4985947;28;20491;-44
2022/12/11 04:52:11;;;;;;;0.95;0.20;;;16.00;48.80;;;;;;5045052;28;20072;-45
2022/12/11 04:54:38;;;;;;;0.63;0.20;;;16.00;48.80;;;;;;5047513;28;20047;-50
2022/12/11 04:57:05;;;;;;;2.38;0.05;;;16.00;48.80;;;;;;5047568;28;20505;-45
2022/12/11 04:59:33;;;;;;;0.30;0.28;;;16.00;48.70;;;;;;5047569;28;20072;-45
2022/12/11 05:02:00;;;;;;;0.22;0.10;;;16.00;48.80;;;;;;5046899;28;20124;-45
2022/12/11 05:04:31;;;;;;;0.20;0.20;;;16.00;48.80;;;;;;5047691;28;20456;-45
2022/12/11 05:06:58;;;;;;;0.80;0.20;;;16.00;48.80;;;;;;5047586;28;20098;-46
2022/12/11 05:09:27;;;;;;;0.30;0.10;;;16.00;48.80;;;;;;5047494;28;20171;-45
2022/12/11 05:11:54;;;;;;;0.30;0.10;;;16.10;48.80;;;;;;5047390;28;20068;-45
2022/12/11 05:14:21;;;;;;;0.40;0.40;;;16.00;48.70;;;;;;5047239;28;20040;-45
2022/12/11 05:16:48;;;;;;;0.63;0.35;;;16.00;48.70;;;;;;5047069;28;20049;-42
2022/12/11 05:19:15;;;;;;;0.52;0.20;;;16.10;48.80;;;;;;5047319;28;20118;-44
2022/12/11 05:21:42;;;;;;;0.30;0.10;;;16.10;48.70;;;;;;5047083;28;20053;-44
2022/12/11 05:24:10;;;;;;;0.28;0.10;;;16.10;48.80;;;;;;5046070;28;20068;-45
2022/12/11 05:26:38;;;;;;;0.30;0.20;;;16.10;48.70;;;;;;5047358;28;20068;-44
2022/12/11 05:29:05;;;;;;;0.40;0.20;;;16.00;49.20;;;;;;5047204;28;20045;-45
2022/12/11 05:31:32;;;;;;;3.30;0.20;;;16.10;48.70;;;;;;5046563;28;20131;-45
2022/12/11 05:33:59;;;;;;;0.32;0.20;;;16.10;48.70;;;;;;5047569;28;20057;-44
2022/12/11 05:36:28;;;;;;;0.30;0.10;;;16.10;48.60;;;;;;5047150;28;20509;-45
2022/12/11 05:38:57;;;;;;;0.50;0.20;;;16.10;48.60;;;;;;5046743;28;20132;-44
2022/12/11 05:41:26;;;;;;;0.50;0.20;;;16.10;48.60;;;;;;5047157;28;20069;-44
2022/12/11 05:43:55;;;;;;;1.75;0.20;;;16.10;48.60;;;;;;5047320;28;20068;-44
2022/12/11 05:46:24;;;;;;;0.17;0.15;;;16.10;49.20;;;;;;5046515;28;20049;-45
2022/12/11 05:48:54;;;;;;;0.60;0.30;;;16.10;48.60;;;;;;5047284;28;20306;-44
2022/12/11 05:51:21;;;;;;;0.10;0.10;;;16.10;48.60;;;;;;5047143;28;20098;-45
2022/12/11 05:53:50;;;;;;;0.57;0.57;;;16.10;48.60;;;;;;5046550;28;20208;-44
2022/12/11 05:56:19;;;;;;;0.20;0.10;;;16.10;48.60;;;;;;5047001;28;20057;-44
2022/12/11 05:58:47;;;;;;;0.28;0.20;;;16.10;48.60;;;;;;5046962;28;20561;-44
2022/12/11 06:01:18;;;;;;;0.30;0.20;;;16.10;48.50;;;;;;5046174;28;20128;-44
2022/12/11 06:03:45;;;;;;;2.70;0.10;;;16.10;48.50;;;;;;5046520;28;20044;-45
2022/12/11 06:06:13;;;;;;;0.20;0.20;;;16.00;48.50;;;;;;5050018;28;20037;-45
2022/12/11 06:08:40;;;;;;;0.45;0.45;;;16.00;48.50;;;;;;5050939;28;20102;-45
2022/12/11 06:11:08;;;;;;;0.85;0.20;;;16.10;48.50;;;;;;5051300;28;20083;-46
2022/12/11 06:13:36;;;;;;;0.52;0.20;;;16.10;48.40;;;;;;5050713;28;20423;-45
2022/12/11 06:16:04;;;;;;;1.70;0.22;;;16.00;48.40;;;;;;5050844;28;20152;-44
2022/12/11 06:18:36;;;;;;;3.30;0.20;;;16.00;48.50;;;;;;5050668;28;20086;-45
2022/12/11 06:21:11;;;;;;;0.60;0.10;;;16.10;48.80;;;;;;5050332;28;20061;-43
2022/12/11 06:23:38;;;;;;;2.43;0.23;;;16.10;49.00;;;;;;5047283;28;20047;-42
2022/12/11 06:26:06;;;;;;;5.45;0.63;;;16.00;49.00;;;;;;5050757;28;20374;-40
2022/12/11 06:28:33;;;;;;;5.35;0.30;;;16.10;49.20;;;;;;5050098;28;20096;-41
2022/12/11 06:31:01;;;;;;;0.45;0.10;;;16.20;49.40;;;;;;5050232;28;20140;-41
2022/12/11 06:33:28;;;;;;;13.60;0.50;;;16.30;49.40;;;;;;5050260;28;20945;-42
2022/12/11 06:35:57;;;;;;;3.28;0.45;;;16.30;49.30;;;;;;5050392;28;20427;-41
2022/12/11 06:38:24;;;;;;;1.15;0.55;;;16.40;49.10;;;;;;5050052;28;20562;-41
2022/12/11 06:40:55;;;;;;;8.38;2.17;;;16.60;49.10;;;;;;5050397;28;20043;-40
2022/12/11 06:43:22;;;;;;;4.88;0.30;;;16.70;48.90;;;;;;5049860;28;20428;-41
2022/12/11 06:45:49;;;;;;;6.85;0.82;;;16.70;48.70;;;;;;5049688;28;20852;-41
2022/12/11 06:48:17;;;;;;;5.47;0.47;;;16.90;48.60;;;;;;5049888;28;20037;-40
2022/12/11 06:50:44;;;;;;;1.42;0.73;;;16.90;48.40;;;;;;5050180;28;20574;-41
2022/12/11 06:53:14;;;;;;;1.05;0.45;;;17.00;48.20;;;;;;5049932;28;20049;-41
2022/12/11 06:55:42;;;;;;;2.92;0.30;;;17.10;48.10;;;;;;5049726;28;20045;-41
2022/12/11 06:58:09;;;;;;;1.15;0.60;;;17.20;48.00;;;;;;5049178;28;20601;-41
2022/12/11 07:00:37;;;;;;;0.55;0.50;;;17.30;47.90;;;;;;5049606;28;20040;-41
2022/12/11 07:03:05;;;;;;;1.13;0.57;;;17.30;47.70;;;;;;5049460;28;20413;-41
2022/12/11 07:05:33;;;;;;;2.17;0.75;;;17.40;47.80;;;;;;5049700;28;20069;-41
2022/12/11 07:08:00;;;;;;;2.55;1.33;;;17.50;47.60;;;;;;5049470;28;20128;-41
2022/12/11 07:10:29;;;;;;;1.92;0.80;;;17.60;47.40;;;;;;5048115;28;20084;-41
2022/12/11 07:12:56;;;;;;;3.53;1.08;;;17.70;47.30;;;;;;5049009;28;20536;-41
2022/12/11 07:15:23;;;;;;;1.90;0.88;;;17.80;47.30;;;;;;5047832;28;20047;-42
2022/12/11 07:17:50;;;;;;;1.10;1.08;;;17.80;47.10;;;;;;5049226;28;20053;-42
2022/12/11 07:20:17;;;;;;;1.42;0.90;;;17.90;46.90;;;;;;5049299;28;20052;-42
2022/12/11 07:22:44;;;;;;;5.07;1.55;;;17.90;46.90;;;;;;5049758;28;20045;-42
2022/12/11 07:25:11;;;;;;;2.78;1.17;;;18.00;47.50;;;;;;5049271;28;20047;-42
2022/12/11 07:27:40;;;;;;;1.90;1.23;;;18.00;46.90;;;;;;5049081;28;20143;-42
2022/12/11 07:30:09;;;;;;;2.35;1.27;;;18.10;47.00;;;;;;5048945;28;20061;-41
2022/12/11 07:32:36;;;;;;;2.50;0.93;;;18.10;46.90;;;;;;5044888;28;20505;-42
2022/12/11 07:35:03;;;;;;;3.25;1.30;;;18.20;46.90;;;;;;5049149;28;20520;-42
2022/12/11 07:37:30;;;;;;;3.38;1.02;;;18.20;46.70;;;;;;5048617;28;20407;-42
2022/12/11 07:39:57;;;;;;;4.13;1.42;;;18.30;46.70;;;;;;5048754;28;20123;-42
2022/12/11 07:42:24;;;;;;;8.35;1.48;;;18.30;46.60;;;;;;5048470;28;20175;-42
2022/12/11 07:44:53;;;;;;;2.13;1.55;;;18.30;47.20;;;;;;5048826;28;20134;-42
2022/12/11 07:47:20;;;;;;;2.58;1.50;;;18.40;48.10;;;;;;5048365;28;20114;-42
2022/12/11 07:49:48;;;;;;;4.28;1.88;;;18.40;48.80;;;;;;5047818;28;20156;-42
2022/12/11 07:52:15;;;;;;;3.65;1.92;;;18.50;49.20;;;;;;5048247;28;20394;-42
2022/12/11 07:54:42;;;;;;;5.28;2.17;;;18.50;49.90;;;;;;5048277;28;20576;-42
2022/12/11 07:57:09;;;;;;;3.85;2.10;;;18.40;50.90;;;;;;5048221;28;20410;-41
2022/12/11 07:59:36;;;;;;;3.13;2.25;;;18.40;51.40;;;;;;5048356;28;20037;-42
2022/12/11 08:02:05;;;;;;;4.75;4.32;;;18.30;51.50;;;;;;5048050;28;20079;-42
2022/12/11 08:04:32;;;;;;;7.38;2.38;;;18.20;51.40;;;;;;5048455;28;20045;-44
2022/12/11 08:06:59;;;;;;;9.50;3.00;;;18.10;51.30;;;;;;5048534;28;20430;-42
2022/12/11 08:09:26;;;;;;;5.88;2.28;;;18.10;51.30;;;;;;5048554;28;20056;-42
2022/12/11 08:11:53;;;;;;;5.55;2.75;;;18.00;51.20;;;;;;5048590;28;20053;-42
2022/12/11 08:14:21;;;;;;;5.50;3.15;;;17.90;51.10;;;;;;5048530;28;20520;-42
2022/12/11 08:16:48;;;;;;;4.45;2.25;;;17.90;51.00;;;;;;5048118;28;20057;-42
2022/12/11 08:19:16;;;;;;;3.20;2.42;;;17.70;50.90;;;;;;5048224;28;20037;-42
2022/12/11 08:21:44;;;;;;;6.32;2.45;;;17.70;50.90;;;;;;5047997;28;20057;-42
2022/12/11 08:24:11;;;;;;;5.00;2.17;;;17.60;50.80;;;;;;5047813;28;20087;-42
2022/12/11 08:26:38;;;;;;;4.35;2.67;;;17.60;50.80;;;;;;5048156;28;20044;-43
2022/12/11 08:29:05;;;;;;;2.88;1.25;;;17.50;50.70;;;;;;5047714;28;20143;-41
2022/12/11 08:31:33;;;;;;;5.18;2.67;;;17.40;50.60;;;;;;5047811;28;20132;-42
2022/12/11 08:34:00;;;;;;;1.42;1.17;;;17.40;50.60;;;;;;5044345;28;20052;-39
2022/12/11 08:36:29;;;;;;;3.72;3.00;;;17.30;50.50;;;;;;5047724;28;20052;-42
2022/12/11 08:38:56;;;;;;;2.88;2.60;;;17.30;50.50;;;;;;5047613;28;20040;-42
2022/12/11 08:41:25;;;;;;;4.63;2.83;;;17.20;50.40;;;;;;5047840;28;20072;-42
2022/12/11 08:43:53;;;;;;;2.67;2.03;;;17.20;50.30;;;;;;5047807;28;20131;-42
2022/12/11 08:46:22;;;;;;;2.70;1.77;;;17.10;50.30;;;;;;5047395;28;20049;-42
2022/12/11 08:48:49;;;;;;;3.05;2.45;;;17.10;50.20;;;;;;5047786;28;20409;-42
2022/12/11 08:51:20;;;;;;;3.38;2.10;;;17.00;50.00;;;;;;5047752;28;20049;-42
2022/12/11 08:53:48;;;;;;;2.38;2.15;;;17.00;50.00;;;;;;5047416;28;20098;-42
2022/12/11 08:56:20;;;;;;;4.13;1.73;;;16.90;49.90;;;;;;5047844;28;20440;-42
2022/12/11 08:58:47;;;;;;;2.08;1.27;;;16.90;49.80;;;;;;5047866;28;20045;-41
2022/12/11 09:01:17;;;;;;;3.40;2.30;;;16.80;49.70;;;;;;5047637;28;20527;-42
2022/12/11 09:03:44;;;;;;;2.58;2.33;;;16.80;50.20;;;;;;5047315;28;20428;-41
2022/12/11 09:06:14;;;;;;;4.00;2.17;;;16.80;49.70;;;;;;5047443;28;20091;-41
2022/12/11 09:08:42;;;;;;;3.90;2.85;;;16.80;49.60;;;;;;5046857;28;20486;-40
2022/12/11 09:11:13;;;;;;;3.05;2.30;;;16.70;49.40;;;;;;5047497;28;20488;-40
2022/12/11 09:13:41;;;;;;;4.20;2.40;;;16.70;49.40;;;;;;5047479;28;20099;-41
2022/12/11 09:16:10;;;;;;;4.82;2.65;;;16.70;49.30;;;;;;5047501;28;20051;-40
2022/12/11 09:18:37;;;;;;;3.88;2.55;;;16.70;49.30;;;;;;5047205;28;20048;-40
2022/12/11 09:21:07;;;;;;;2.85;1.70;;;16.60;49.10;;;;;;5047312;28;20049;-42
2022/12/11 09:23:34;;;;;;;3.03;2.15;;;16.60;49.00;;;;;;5046629;28;20136;-42
2022/12/11 09:26:04;;;;;;;4.93;2.05;;;16.60;49.00;;;;;;5047178;28;20056;-40
2022/12/11 09:28:34;;;;;;;2.20;1.60;;;16.60;48.90;;;;;;5047120;28;20053;-40
2022/12/11 09:31:01;;;;;;;2.47;1.92;;;16.50;48.70;;;;;;5047184;28;20044;-42
2022/12/11 09:33:28;;;;;;;3.53;1.90;;;16.50;48.70;;;;;;5047128;28;20049;-40
2022/12/11 09:35:58;;;;;;;4.00;1.75;;;16.50;48.60;;;;;;5047234;28;20055;-41
2022/12/11 09:38:26;;;;;;;3.28;1.73;;;16.50;48.50;;;;;;5046865;28;20098;-41
2022/12/11 09:40:54;;;;;;;3.40;2.25;;;16.40;48.30;;;;;;5049446;28;20037;-41
2022/12/11 09:43:37;;;;;;;1.60;1.17;;;16.40;48.20;;;;;;5051205;28;20044;-41
2022/12/11 09:46:10;;;;;;;2.80;1.98;;;16.40;48.10;;;;;;5051272;28;20045;-41
2022/12/11 09:48:39;;;;;;;2.65;1.60;;;16.40;48.10;;;;;;5052280;28;20561;-41
2022/12/11 09:51:17;;;;;;;1.48;1.35;;;16.30;48.00;;;;;;5052134;28;20196;-41
2022/12/11 09:53:45;;;;;;;1.73;1.33;;;16.30;47.90;;;;;;5051081;28;20049;-41
2022/12/11 09:56:17;;;;;;;1.90;1.48;;;16.30;47.90;;;;;;5051389;28;20132;-41
2022/12/11 09:59:03;;;;;;;3.42;2.20;;;16.30;47.80;;;;;;5051159;28;20085;-41
2022/12/11 10:01:39;;;;;;;4.57;1.48;;;16.30;47.80;;;;;;5050442;28;20048;-41
2022/12/11 10:04:30;;;;;;;1.55;1.45;;;16.20;47.70;;;;;;5030929;28;20490;-40
2022/12/11 10:07:06;;;;;;;2.20;1.63;;;16.20;47.70;;;;;;5030494;28;20049;-42
2022/12/11 10:09:41;;;;;;;3.70;1.38;;;16.20;47.70;;;;;;5030709;28;20107;-42
2022/12/11 10:12:28;;;;;;;3.88;1.95;;;16.10;48.10;;;;;;5036869;28;20041;-42
2022/12/11 10:15:05;;;;;;;;;;;16.10;47.40;;;;;;5052749;28;20386;-43
2022/12/11 10:17:34;;;;;;;1.80;1.10;;;16.00;47.60;;;;;;5052337;28;19929;-41
2022/12/11 10:20:22;;;;;;;1.45;1.35;;;16.00;47.60;;;;;;5050588;28;20065;-41
2022/12/11 10:22:50;;;;;;;1.55;1.45;;;16.00;47.50;;;;;;5050333;28;20044;-42
2022/12/11 10:25:21;;;;;;;1.92;1.42;;;16.00;47.40;;;;;;5050326;28;20069;-41
2022/12/11 10:27:49;;;;;;;3.38;1.75;;;16.00;47.30;;;;;;5045807;28;20494;-44
2022/12/11 10:30:21;;;;;;;5.57;1.92;;;16.10;47.10;;;;;;5045670;28;20037;-50
2022/12/11 10:32:56;;;;;;;2.00;0.70;;;16.10;47.30;;;;;;5049051;28;20096;-51
2022/12/11 10:35:37;;;;;;;2.22;1.13;;;16.30;48.00;;;;;;5043515;28;20045;-47
2022/12/11 10:38:23;;;;;;;5.43;1.00;;;16.50;48.20;;;;;;5048612;28;20461;-40
2022/12/11 10:40:53;;;;;;;1.20;1.10;;;16.70;48.00;;;;;;5048438;28;20048;-41
2022/12/11 10:43:20;;;;;;;1.95;1.50;;;16.90;48.30;;;;;;5048442;28;20409;-42
2022/12/11 10:45:52;;;;;;;1.85;0.88;;;17.10;48.20;;;;;;5040598;28;20128;-41
2022/12/11 10:48:21;;;;;;;4.20;2.08;;;17.30;47.80;;;;;;5041138;28;20048;-41
2022/12/11 10:50:58;;;;;;;3.28;1.35;;;17.60;47.90;;;;;;5047122;28;20127;-41
2022/12/11 10:53:25;;;;;;;2.70;1.20;;;17.80;47.60;;;;;;5045744;28;20041;-41
2022/12/11 10:55:53;;;;;;;1.75;1.10;;;18.00;47.50;;;;;;5047456;28;20052;-41
2022/12/11 10:58:23;;;;;;;1.80;1.10;;;18.20;47.10;;;;;;5047858;28;20471;-41
2022/12/11 11:01:05;;;;;;;4.00;1.48;;;18.40;46.90;;;;;;5047485;28;20041;-40
2022/12/11 11:03:35;;;;;;;3.38;1.45;;;18.60;46.30;;;;;;5047993;28;20041;-40
2022/12/11 11:06:04;;;;;;;2.55;1.17;;;18.80;46.10;;;;;;5048000;28;20091;-40
2022/12/11 11:08:39;;;;;;;3.17;1.23;;;19.00;46.10;;;;;;5038886;28;20064;-40
2022/12/11 11:11:07;;;;;;;1.85;1.17;;;19.20;45.90;;;;;;5047662;28;20729;-40
2022/12/11 11:13:35;;;;;;;2.15;1.95;;;19.30;45.70;;;;;;5049695;28;20037;-41
2022/12/11 11:16:06;;;;;;;5.72;1.30;;;19.50;45.30;;;;;;5047756;28;20044;-41
2022/12/11 11:18:34;;;;;;;1.98;1.25;;;19.70;44.80;;;;;;5047143;28;20053;-42
2022/12/11 11:21:02;;;;;;;1.08;0.60;;;19.80;44.30;;;;;;5047749;28;20124;-42
2022/12/11 11:23:30;;;;;;;3.63;1.65;;;20.00;44.00;;;;;;5047721;28;20053;-47
2022/12/11 11:25:59;;;;;;;3.80;1.60;;;20.10;44.00;;;;;;5045947;28;20057;-43
2022/12/11 11:28:29;;;;;;;1.63;1.23;;;20.30;45.00;;;;;;5043218;28;20521;-43
2022/12/11 11:31:04;;;;;;;2.47;0.77;;;20.40;46.60;;;;;;5032764;28;20040;-43
2022/12/11 11:33:34;;;;;;;2.67;1.13;;;20.60;46.70;;;;;;4993659;28;1241506;-47
2022/12/11 11:36:02;;;;;;;2.50;1.10;;;20.70;46.90;;;;;;5046349;28;20040;-46
2022/12/11 11:38:33;;;;;;;1.83;1.00;;;20.80;47.10;;;;;;5045349;28;20045;-45
2022/12/11 11:41:09;;;;;;;3.10;0.90;;;21.00;47.50;;;;;;5048414;28;20506;-45
2022/12/11 11:43:43;;;;;;;3.08;0.73;;;21.10;48.70;;;;;;5048205;28;20042;-45
2022/12/11 11:46:17;;;;;;;2.17;0.90;;;21.30;49.30;;;;;;5048361;28;20501;-45
2022/12/11 11:48:51;;;;;;;1.52;0.93;;;21.40;50.10;;;;;;5047598;28;20509;-45
2022/12/11 11:51:24;;;;;;;2.15;0.95;;;21.60;50.90;;;;;;5048104;28;20157;-47
2022/12/11 11:53:55;;;;;;;2.63;0.90;;;21.70;51.40;;;;;;5048244;28;20525;-45
2022/12/11 11:56:26;;;;;;;4.70;1.02;;;21.90;51.30;;;;;;5047960;28;20111;-46
2022/12/11 11:59:03;;;;;;;2.15;1.45;;;22.00;50.80;;;;;;5047850;28;20145;-46
2022/12/11 12:01:32;;;;;;;1.60;1.33;;;22.10;49.10;;;;;;5047068;28;20037;-46
2022/12/11 12:04:00;;;;;;;1.92;1.80;;;22.20;48.10;;;;;;5046115;28;20040;-45
2022/12/11 12:06:38;;;;;;;1.60;0.90;;;22.30;47.40;;;;;;5046215;28;20076;-43
2022/12/11 12:09:17;;;;;;;9.60;1.40;;;22.30;46.80;;;;;;5047371;28;20049;-43
2022/12/11 12:11:53;;;;;;;6.13;1.85;;;22.20;46.30;;;;;;5047313;28;20041;-43
2022/12/11 12:14:23;;;;;;;;;;;22.20;45.70;;;;;;5047777;28;20037;-43
2022/12/11 12:17:05;;;;;;;4.78;1.40;;;22.20;45.90;;;;;;5046844;28;19956;-42
2022/12/11 12:19:43;;;;;;;4.15;1.80;;;22.10;45.00;;;;;;5041719;28;20044;-43
2022/12/11 12:22:21;;;;;;;2.42;2.22;;;22.10;44.40;;;;;;5045618;28;20041;-44
2022/12/11 12:24:55;;;;;;;1.75;1.63;;;22.10;44.20;;;;;;5046742;28;20048;-43
2022/12/11 12:27:31;;;;;;;1.42;1.33;;;22.00;44.20;;;;;;5039957;28;20099;-44
2022/12/11 12:30:04;;;;;;;1.38;1.27;;;22.00;44.00;;;;;;5046470;28;20044;-42
2022/12/11 12:32:42;;;;;;;2.17;1.92;;;21.90;43.70;;;;;;5044299;28;20052;-41
2022/12/11 12:35:16;;;;;;;7.72;3.00;;;21.90;43.10;;;;;;5029137;28;20664;-41
2022/12/11 12:37:54;;;;;;;5.65;3.10;;;21.90;43.30;;;;;;5047442;28;20599;-41
2022/12/11 12:40:29;;;;;;;5.10;3.75;;;22.00;42.20;;;;;;5047456;28;20040;-42
2022/12/11 12:43:04;;;;;;;2.70;2.40;;;22.00;41.70;;;;;;5047361;28;20801;-43
2022/12/11 12:45:40;;;;;;;2.35;2.15;;;22.10;41.40;;;;;;5046648;28;20052;-42
2022/12/11 12:48:09;;;;;;;2.78;2.30;;;22.10;41.40;;;;;;5046894;28;20090;-42
2022/12/11 12:50:40;;;;;;;2.20;2.00;;;22.20;40.60;;;;;;5045879;28;20183;-40
2022/12/11 12:53:12;;;;;;;4.15;1.58;;;22.30;40.60;;;;;;5047111;28;20138;-42
2022/12/11 12:55:39;;;;;;;3.72;2.08;;;22.30;40.50;;;;;;5044563;28;20083;-42
2022/12/11 12:58:08;;;;;;;7.72;2.13;;;22.30;40.20;;;;;;5044792;28;20517;-42
2022/12/11 13:00:37;;;;;;;4.93;1.88;;;22.40;40.00;;;;;;5045082;28;20582;-43
2022/12/11 13:03:14;;;;;;;6.40;2.05;;;22.40;39.70;;;;;;5044281;28;20517;-45
2022/12/11 13:05:44;;;;;;;1.83;1.60;;;22.50;40.10;;;;;;5046311;28;20048;-43
2022/12/11 13:08:12;;;;;;;4.55;2.28;;;22.40;40.00;;;;;;5045492;28;20044;-44
2022/12/11 13:10:42;;;;;;;1.52;1.33;;;22.40;39.80;;;;;;5045759;28;20429;-43
2022/12/11 13:13:31;;;;;;;6.25;2.17;;;22.40;39.60;;;;;;5044959;28;20572;-43
2022/12/11 13:16:07;;;;;;;3.75;1.75;;;22.40;39.20;;;;;;5046444;28;20048;-44
2022/12/11 13:18:39;;;;;;;2.55;1.20;;;22.40;39.10;;;;;;5043345;28;20094;-43